Terminal Aerodrome Forecast
Issued by NWS

Home | Current Version | Previous Version | Text Only | Print | Product List | Glossary On
Versions: 1 2 3 4 5 6 7 8 9 10 11 12 13 14 15 16 17 18 19 20 21 22 23 24 25 26 27 28 29 30
000
FTUS43 KPAH 301331 AAA
TAFOWB
TAF AMD
KOWB 301331Z 3014/0112 30005KT P6SM SCT120
      TEMPO 3014/3015 OVC010
     FM301900 26012G18KT P6SM SCT040
     FM010200 26007KT P6SM BKN040=

USA.gov is the U.S. government's official web portal to all federal, state and local government web resources and services.